map of MEL home
MEL - Airport
Location
City:  Melbourne, Victoria, Australia
Name:Tullamarine International Airport
ICAO:YMML
IATA:MEL

Details
Type:Airport (Aerodrome, Airfield)
Use:Public/Civil, International (customs port of entry)
Latitude:3740'24"S (-37.673332)
Longitude:14450'36"E (144.843333)
Datum:WGS 1984
Elevation:434 ft (132 m)
Variation:11.52E (WMM2015 magnetic declination)
0.01 annual change
Runways:2
Longest:11998 × 148 ft (3657 × 45 m), paved

Time
Time Zone:UTC+10 (DST+11)
Local Time:

Weather
METAR:YMML 191400Z 36007KT 9999 FEW045 04/03 Q1018 NOSIG
TAF:YMML 191128Z 1912/2018 36005KT 9999 SCT050
FM200000 25010KT 9999 SCT050
FM201000 33005KT CAVOK
FM201200 29007KT 9999 SCT050

Related Locations
Nearby:
Farthest:FLW: 12189 mi / 19616 km
Flores Island [Santa Cruz], 20, PT

Find:

   beyond  
but within

Other Information
Maps:
NOTAMs:
Links:
Sources:

  
  • flag of Australia
  • flag of Victoria
  • flag of Melbourne
  

Sectional Chart

Flight Planning
at skyvector.com

Satellite Image

Google Maps Satellite view

 

Copyright © 2004-2018 Karl L. Swartz. All rights reserved.
The Great Circle Mapper name and logo are trademarks of the Great Circle Mapper.
All other trademarks mentioned herein belong to their respective owners.
Please see credits for attibutions and further copyright information.

  Follow gcmap on Facebook Follow gcmap on Twitter Follow gcmap on Google+ GCmap on LinkedIn

hCard Microformat

Geo Microformat